createdAt,value
2022-09-25T00:00:19.003Z,67.65
2022-09-25T00:04:41.867Z,68.05
2022-09-25T00:07:45.491Z,68.00
2022-09-25T00:10:16.658Z,68.01
2022-09-25T00:13:07.732Z,67.98
2022-09-25T00:15:56.496Z,67.96
2022-09-25T00:18:55.003Z,67.78
2022-09-25T00:21:31.576Z,67.75
2022-09-25T00:24:14.069Z,67.70
2022-09-25T00:27:01.856Z,67.74
2022-09-25T00:29:40.036Z,67.83
2022-09-25T00:32:12.578Z,68.08
2022-09-25T00:34:59.077Z,68.36
2022-09-25T00:37:30.744Z,68.39
2022-09-25T00:40:04.012Z,68.35
2022-09-25T00:42:34.036Z,68.41
2022-09-25T00:45:18.719Z,68.57
2022-09-25T00:48:06.684Z,68.59
2022-09-25T00:51:04.315Z,68.62
2022-09-25T00:53:44.027Z,68.61
2022-09-25T00:56:15.646Z,68.41
2022-09-25T00:58:50.803Z,68.52
2022-09-25T01:01:20.044Z,68.51
2022-09-25T01:03:56.340Z,68.20
2022-09-25T01:06:32.070Z,68.20
2022-09-25T01:09:05.089Z,68.08
2022-09-25T01:11:38.852Z,68.29
2022-09-25T01:14:11.152Z,68.56
2022-09-25T01:17:09.268Z,68.40
2022-09-25T01:19:53.095Z,68.53
2022-09-25T01:22:42.866Z,68.59
2022-09-25T01:26:16.160Z,68.52
2022-09-25T01:29:02.070Z,68.66
2022-09-25T01:32:20.668Z,68.58
2022-09-25T01:35:11.350Z,68.65
2022-09-25T01:37:55.665Z,68.53
2022-09-25T01:40:54.406Z,68.63
2022-09-25T01:43:39.876Z,68.69
2022-09-25T01:46:24.438Z,68.57
2022-09-25T01:49:07.725Z,68.87
2022-09-25T01:51:50.640Z,68.87
2022-09-25T01:54:41.733Z,68.77
2022-09-25T01:57:28.312Z,68.95
2022-09-25T02:00:08.966Z,68.90
2022-09-25T02:02:50.280Z,68.99
2022-09-25T02:05:47.452Z,69.20
2022-09-25T02:08:49.118Z,69.42
2022-09-25T02:11:20.456Z,69.89
2022-09-25T02:14:01.573Z,69.86
2022-09-25T02:16:44.312Z,69.76
2022-09-25T02:19:35.624Z,69.66
2022-09-25T02:22:37.295Z,69.62
2022-09-25T02:25:24.489Z,69.66
2022-09-25T02:27:54.596Z,69.63
2022-09-25T02:30:30.236Z,69.84
2022-09-25T02:33:02.557Z,69.93
2022-09-25T02:35:34.353Z,69.95
2022-09-25T02:38:04.671Z,69.95
2022-09-25T02:40:52.431Z,69.97
2022-09-25T02:43:31.822Z,70.17
2022-09-25T02:46:39.666Z,70.08
2022-09-25T02:50:31.676Z,70.12
2022-09-25T02:56:45.362Z,70.39
2022-09-25T02:59:42.045Z,70.31
2022-09-25T03:02:13.514Z,70.42
2022-09-25T03:04:49.549Z,70.58
2022-09-25T03:07:24.506Z,70.65
2022-09-25T03:10:01.729Z,70.46
2022-09-25T03:12:37.372Z,70.50
2022-09-25T03:15:10.832Z,70.65
2022-09-25T03:17:51.894Z,70.63
2022-09-25T03:20:29.626Z,70.56
2022-09-25T03:23:01.698Z,70.47
2022-09-25T03:25:38.914Z,70.47
2022-09-25T03:28:23.572Z,70.34
2022-09-25T03:31:13.123Z,70.51
2022-09-25T03:33:59.047Z,70.45
2022-09-25T03:36:33.128Z,70.36
2022-09-25T03:39:06.577Z,70.53
2022-09-25T03:41:41.877Z,70.47
2022-09-25T03:44:12.484Z,70.19
2022-09-25T03:46:42.676Z,70.29
2022-09-25T03:49:23.896Z,70.30
2022-09-25T03:51:53.462Z,70.29
2022-09-25T03:54:32.183Z,70.32
2022-09-25T03:57:08.741Z,70.35
2022-09-25T03:59:43.818Z,70.33
2022-09-25T04:02:15.296Z,70.30
2022-09-25T04:04:47.682Z,70.43
2022-09-25T04:07:17.691Z,70.61
2022-09-25T04:09:50.092Z,70.66
2022-09-25T04:12:19.538Z,70.61
2022-09-25T04:14:53.155Z,70.66
2022-09-25T04:17:29.667Z,70.57
2022-09-25T04:20:02.769Z,70.43
2022-09-25T04:22:36.659Z,70.53
2022-09-25T04:25:10.433Z,70.59
2022-09-25T04:27:46.498Z,70.53
2022-09-25T04:30:34.308Z,70.54
2022-09-25T04:33:29.686Z,70.41
2022-09-25T04:36:08.261Z,70.57
2022-09-25T04:38:43.324Z,70.62
2022-09-25T04:41:20.040Z,70.75
2022-09-25T04:44:08.050Z,70.74
2022-09-25T04:46:41.048Z,70.82
2022-09-25T04:49:10.791Z,70.75
2022-09-25T04:51:44.332Z,70.93
2022-09-25T04:54:18.351Z,70.61
2022-09-25T04:56:59.444Z,70.69
2022-09-25T04:59:34.335Z,70.56
2022-09-25T05:02:54.606Z,70.76
2022-09-25T05:15:36.902Z,71.05
2022-09-25T05:18:23.740Z,70.94
2022-09-25T05:21:09.297Z,70.98
2022-09-25T05:23:52.192Z,71.04
2022-09-25T05:26:37.212Z,70.99
2022-09-25T05:29:07.014Z,71.06
2022-09-25T05:31:37.067Z,70.70
2022-09-25T05:34:07.940Z,70.77
2022-09-25T05:36:40.730Z,70.95
2022-09-25T05:39:14.668Z,71.09
2022-09-25T05:41:45.930Z,71.15
2022-09-25T05:44:20.244Z,70.75
2022-09-25T05:47:19.599Z,70.93
2022-09-25T05:49:49.968Z,71.31
2022-09-25T05:52:46.900Z,71.48
2022-09-25T06:05:41.281Z,71.51
2022-09-25T06:18:51.296Z,71.58
2022-09-25T06:21:22.802Z,71.52
2022-09-25T06:23:52.453Z,71.43
2022-09-25T06:26:29.170Z,71.17
2022-09-25T06:29:57.673Z,71.02
2022-09-25T06:32:24.165Z,71.06
2022-09-25T06:35:04.758Z,70.97
2022-09-25T06:37:47.936Z,70.83
2022-09-25T06:40:26.921Z,71.41
2022-09-25T06:43:34.520Z,70.98
2022-09-25T06:46:06.474Z,71.31
2022-09-25T06:48:41.963Z,70.77
2022-09-25T06:54:24.266Z,68.78
2022-09-25T06:56:55.229Z,68.57
2022-09-25T06:59:36.559Z,68.29
2022-09-25T07:02:30.490Z,68.22
2022-09-25T07:05:10.818Z,68.06
2022-09-25T07:07:41.346Z,66.76
2022-09-25T07:10:11.510Z,65.71
2022-09-25T07:12:47.201Z,65.04
2022-09-25T07:15:17.620Z,65.28
2022-09-25T07:17:50.562Z,65.51
2022-09-25T07:20:29.090Z,64.98
2022-09-25T07:24:45.625Z,64.44
2022-09-25T07:26:12.811Z,63.73
2022-09-25T07:28:45.830Z,62.80
2022-09-25T07:31:22.868Z,62.12
2022-09-25T07:33:57.687Z,61.24
2022-09-25T07:36:30.166Z,59.91
2022-09-25T07:39:23.962Z,59.80
2022-09-25T07:41:59.507Z,58.12
2022-09-25T07:44:48.461Z,56.86
2022-09-25T07:47:22.050Z,55.49
2022-09-25T07:50:04.883Z,55.31
2022-09-25T07:52:52.081Z,55.73
2022-09-25T07:55:24.669Z,54.39
2022-09-25T07:57:57.734Z,53.63
2022-09-25T08:00:47.923Z,53.16
2022-09-25T08:03:18.466Z,52.38
2022-09-25T08:05:51.761Z,50.87
2022-09-25T08:08:23.760Z,50.04
2022-09-25T08:11:11.590Z,49.34
2022-09-25T08:13:47.172Z,48.86
2022-09-25T08:16:19.416Z,48.21
2022-09-25T08:18:53.857Z,48.88
2022-09-25T08:21:23.702Z,49.74
2022-09-25T08:23:58.889Z,49.22
2022-09-25T08:26:50.533Z,49.06
2022-09-25T08:29:29.600Z,49.44
2022-09-25T08:32:30.513Z,48.05
2022-09-25T08:35:02.365Z,46.92
2022-09-25T08:37:47.432Z,46.77
2022-09-25T08:40:23.426Z,47.04
2022-09-25T08:43:00.381Z,46.82
2022-09-25T08:46:03.996Z,46.06
2022-09-25T08:49:04.128Z,45.27
2022-09-25T08:51:53.096Z,44.69
2022-09-25T08:54:43.408Z,45.38
2022-09-25T08:57:48.970Z,45.07
2022-09-25T09:00:31.155Z,44.39
2022-09-25T09:03:08.352Z,44.54
2022-09-25T09:05:48.209Z,44.57
2022-09-25T09:08:32.440Z,44.79
2022-09-25T09:11:15.690Z,45.15
2022-09-25T09:14:08.112Z,44.43
2022-09-25T09:17:18.603Z,42.97
2022-09-25T09:20:31.100Z,42.06
2022-09-25T09:23:21.637Z,42.82
2022-09-25T09:26:28.443Z,43.39
2022-09-25T09:29:33.557Z,43.21
2022-09-25T09:32:31.481Z,41.93
2022-09-25T09:35:16.221Z,42.34
2022-09-25T09:38:12.767Z,41.23
2022-09-25T09:41:22.972Z,40.81
2022-09-25T09:44:32.985Z,40.64
2022-09-25T09:47:21.497Z,41.16
2022-09-25T09:50:26.727Z,41.35
2022-09-25T09:53:06.256Z,40.09
2022-09-25T09:55:45.402Z,40.10
2022-09-25T09:58:36.062Z,39.58
2022-09-25T10:01:28.986Z,38.76
2022-09-25T10:04:26.515Z,38.26
2022-09-25T10:07:12.409Z,36.48
2022-09-25T10:09:44.201Z,36.46
2022-09-25T10:12:37.841Z,35.73
2022-09-25T10:15:58.574Z,34.77
2022-09-25T10:18:41.290Z,35.39
2022-09-25T10:21:16.554Z,35.95
2022-09-25T10:23:51.365Z,34.69
2022-09-25T10:26:42.352Z,34.36
2022-09-25T10:29:21.027Z,34.17
2022-09-25T10:32:06.953Z,34.87
2022-09-25T10:34:36.249Z,33.57
2022-09-25T10:37:20.482Z,33.19
2022-09-25T10:40:22.955Z,33.66
2022-09-25T10:43:20.745Z,33.46
2022-09-25T10:46:15.211Z,33.38
2022-09-25T10:49:06.999Z,33.47
2022-09-25T10:51:39.868Z,32.43
2022-09-25T10:54:17.887Z,32.29
2022-09-25T10:56:51.741Z,32.96
2022-09-25T10:59:24.926Z,32.41
2022-09-25T11:01:56.778Z,33.26
2022-09-25T11:04:40.531Z,33.45
2022-09-25T11:07:27.651Z,33.68
2022-09-25T11:10:01.084Z,34.51
2022-09-25T11:12:34.563Z,34.88
2022-09-25T11:15:09.823Z,35.09
2022-09-25T11:17:44.474Z,35.48
2022-09-25T11:20:16.804Z,36.24
2022-09-25T11:22:59.018Z,36.53
2022-09-25T11:26:01.679Z,36.55
2022-09-25T11:29:05.422Z,36.82
2022-09-25T11:32:04.999Z,36.98
2022-09-25T11:35:41.347Z,37.28
2022-09-25T12:11:03.015Z,37.99
2022-09-25T12:13:58.278Z,37.86
2022-09-25T12:17:15.905Z,38.03
2022-09-25T12:20:16.554Z,38.41
2022-09-25T12:22:58.360Z,38.63
2022-09-25T12:25:58.768Z,38.74
2022-09-25T12:28:55.562Z,38.73
2022-09-25T12:31:42.154Z,38.68
2022-09-25T12:34:42.293Z,38.35
2022-09-25T12:37:43.644Z,38.75
2022-09-25T12:40:37.335Z,39.35
2022-09-25T12:43:36.615Z,39.22
2022-09-25T12:46:30.175Z,39.27
2022-09-25T12:49:24.490Z,39.52
2022-09-25T12:52:05.689Z,39.54
2022-09-25T12:54:42.987Z,39.45
2022-09-25T12:58:10.078Z,39.48
2022-09-25T13:00:46.677Z,39.43
2022-09-25T13:03:39.283Z,39.49
2022-09-25T13:06:31.320Z,39.48
2022-09-25T13:09:17.571Z,39.58
2022-09-25T13:12:09.272Z,39.92
2022-09-25T13:14:42.902Z,40.07
2022-09-25T13:17:15.520Z,40.12
2022-09-25T13:20:28.959Z,39.95
2022-09-25T13:23:06.800Z,39.78
2022-09-25T13:25:50.074Z,39.84
2022-09-25T13:28:34.933Z,40.06
2022-09-25T13:31:11.240Z,40.14
2022-09-25T13:33:51.400Z,40.08
2022-09-25T13:36:23.684Z,39.89
2022-09-25T13:39:25.729Z,39.60
2022-09-25T13:41:58.161Z,39.69
2022-09-25T13:44:45.231Z,39.82
2022-09-25T13:47:25.729Z,39.67
2022-09-25T13:50:10.786Z,39.62
2022-09-25T13:52:40.029Z,39.35
2022-09-25T13:55:21.235Z,39.09
2022-09-25T13:58:02.332Z,38.90
2022-09-25T14:00:38.005Z,38.72
2022-09-25T14:03:47.542Z,38.75
2022-09-25T14:06:39.266Z,38.96
2022-09-25T14:09:11.125Z,39.09
2022-09-25T14:12:25.553Z,39.41
2022-09-25T14:15:19.108Z,39.61
2022-09-25T14:17:53.104Z,39.58
2022-09-25T14:20:34.209Z,39.60
2022-09-25T14:23:33.387Z,39.54
2022-09-25T14:26:25.715Z,39.45
2022-09-25T14:28:58.263Z,39.35
2022-09-25T14:31:29.690Z,39.50
2022-09-25T14:34:30.115Z,39.44
2022-09-25T14:37:51.592Z,39.50
2022-09-25T14:41:13.202Z,39.60
2022-09-25T14:43:56.782Z,39.88
2022-09-25T14:46:26.680Z,40.07
2022-09-25T14:49:24.468Z,40.31
2022-09-25T14:52:05.896Z,40.39
2022-09-25T14:55:00.457Z,40.40
2022-09-25T14:57:39.688Z,40.44
2022-09-25T15:00:17.271Z,40.62
2022-09-25T15:02:47.960Z,40.78
2022-09-25T15:05:37.740Z,40.74
2022-09-25T15:08:39.161Z,40.68
2022-09-25T15:11:19.738Z,40.81
2022-09-25T15:13:48.890Z,40.87
2022-09-25T15:16:45.302Z,40.93
2022-09-25T15:19:25.906Z,40.94
2022-09-25T15:21:55.604Z,40.84
2022-09-25T15:24:30.877Z,40.90
2022-09-25T15:27:06.279Z,40.89
2022-09-25T15:29:43.657Z,40.99
2022-09-25T15:32:40.397Z,41.10
2022-09-25T15:35:22.498Z,41.21
2022-09-25T15:38:11.124Z,41.32
2022-09-25T15:40:41.799Z,41.39
2022-09-25T15:43:26.078Z,41.47
2022-09-25T15:46:37.649Z,41.57
2022-09-25T15:49:07.141Z,41.64
2022-09-25T15:51:36.541Z,41.74
2022-09-25T15:54:32.504Z,41.70
2022-09-25T15:57:17.345Z,41.70
2022-09-25T16:00:08.555Z,41.77
2022-09-25T16:03:01.987Z,41.80
2022-09-25T16:05:35.521Z,41.91
2022-09-25T16:08:36.374Z,42.05
2022-09-25T16:11:23.229Z,42.05
2022-09-25T16:14:29.371Z,42.16
2022-09-25T16:17:00.144Z,42.44
2022-09-25T16:19:33.762Z,42.62
2022-09-25T16:22:23.998Z,42.88
2022-09-25T16:24:55.876Z,43.20
2022-09-25T16:27:34.470Z,43.54
2022-09-25T16:30:16.454Z,43.92
2022-09-25T16:32:51.697Z,44.37
2022-09-25T16:36:09.293Z,44.90
2022-09-25T16:38:45.498Z,45.51
2022-09-25T16:41:31.375Z,46.01
2022-09-25T16:44:22.296Z,46.45
2022-09-25T16:46:55.285Z,46.93
2022-09-25T16:49:45.136Z,47.49
2022-09-25T16:52:27.778Z,47.96
2022-09-25T16:55:20.927Z,48.20
2022-09-25T16:58:21.950Z,48.63
2022-09-25T17:01:05.006Z,49.14
2022-09-25T17:04:11.277Z,49.62
2022-09-25T17:07:11.906Z,50.20
2022-09-25T17:10:08.239Z,50.73
2022-09-25T17:12:54.345Z,51.17
2022-09-25T17:15:38.620Z,51.63
2022-09-25T17:18:40.862Z,52.21
2022-09-25T17:21:19.308Z,52.58
2022-09-25T17:23:55.138Z,52.87
2022-09-25T17:26:33.039Z,53.09
2022-09-25T17:29:21.893Z,53.34
2022-09-25T17:31:55.889Z,53.55
2022-09-25T17:34:33.383Z,53.91
2022-09-25T17:37:18.369Z,54.13
2022-09-25T17:39:50.141Z,54.70
2022-09-25T17:42:22.124Z,54.98
2022-09-25T17:45:21.638Z,55.39
2022-09-25T17:48:04.807Z,55.66
2022-09-25T17:50:50.968Z,55.86
2022-09-25T17:53:37.970Z,55.96
2022-09-25T17:56:17.001Z,56.31
2022-09-25T17:59:01.709Z,56.50
2022-09-25T18:02:13.332Z,56.74
2022-09-25T18:05:00.523Z,56.97
2022-09-25T18:07:40.250Z,57.22
2022-09-25T18:10:16.704Z,57.46
2022-09-25T18:13:00.456Z,57.68
2022-09-25T18:15:57.377Z,58.09
2022-09-25T18:18:54.176Z,58.30
2022-09-25T18:21:59.361Z,58.58
2022-09-25T18:24:53.909Z,58.92
2022-09-25T18:27:51.781Z,59.29
2022-09-25T18:30:43.942Z,59.67
2022-09-25T18:33:35.520Z,59.78
2022-09-25T18:36:33.342Z,59.74
2022-09-25T18:39:21.992Z,59.90
2022-09-25T18:42:02.786Z,60.18
2022-09-25T18:44:42.601Z,60.38
2022-09-25T18:47:37.491Z,60.52
2022-09-25T18:50:20.778Z,60.63
2022-09-25T18:52:55.020Z,60.90
2022-09-25T18:55:53.017Z,61.10
2022-09-25T18:58:33.884Z,61.16
2022-09-25T19:01:20.273Z,61.30
2022-09-25T19:07:14.635Z,61.51
2022-09-25T19:10:21.221Z,61.64
2022-09-25T19:13:14.949Z,61.93
2022-09-25T19:16:23.939Z,61.98
2022-09-25T19:19:07.059Z,62.26
2022-09-25T19:21:55.496Z,62.49
2022-09-25T19:27:42.573Z,62.79
2022-09-25T19:30:56.309Z,63.10
2022-09-25T19:37:06.007Z,63.41
2022-09-25T19:43:50.389Z,63.78
2022-09-25T19:49:34.047Z,64.08
2022-09-25T19:52:31.035Z,64.16
2022-09-25T19:55:37.629Z,64.42
2022-09-25T19:58:31.191Z,64.68
2022-09-25T20:01:41.379Z,64.95
2022-09-25T20:04:26.522Z,65.00
2022-09-25T20:07:29.187Z,64.91
2022-09-25T20:14:02.347Z,64.71
2022-09-25T20:19:47.110Z,64.83
2022-09-25T20:22:26.460Z,64.80
2022-09-25T20:25:12.610Z,64.83
2022-09-25T20:27:59.106Z,64.82
2022-09-25T20:31:09.255Z,64.61
2022-09-25T20:34:10.760Z,65.02
2022-09-25T20:37:11.934Z,65.22
2022-09-25T20:40:12.428Z,65.45
2022-09-25T20:42:46.002Z,65.71
2022-09-25T20:45:41.206Z,65.86
2022-09-25T20:48:13.310Z,65.84
2022-09-25T20:51:06.910Z,65.93
2022-09-25T20:54:05.194Z,65.89
2022-09-25T20:59:52.438Z,66.00
2022-09-25T21:03:31.371Z,66.21
2022-09-25T21:09:39.050Z,66.39
2022-09-25T21:16:47.257Z,66.38
2022-09-25T21:20:17.540Z,66.85
2022-09-25T21:26:31.386Z,67.09
2022-09-25T21:44:31.587Z,66.93
2022-09-25T21:47:57.969Z,66.82
2022-09-25T21:50:43.701Z,66.90
2022-09-25T21:53:35.800Z,66.96
2022-09-25T21:56:24.768Z,66.92
2022-09-25T21:59:13.310Z,66.98
2022-09-25T22:02:10.024Z,66.94
2022-09-25T22:05:02.798Z,66.84
2022-09-25T22:07:49.299Z,67.02
2022-09-25T22:10:48.100Z,67.02
2022-09-25T22:13:34.446Z,67.06
2022-09-25T22:16:37.000Z,67.22
2022-09-25T22:19:39.902Z,67.40
2022-09-25T22:22:30.806Z,67.26
2022-09-25T22:25:35.454Z,67.30
2022-09-25T22:28:17.596Z,67.54
2022-09-25T22:31:24.868Z,67.59
2022-09-25T22:34:32.492Z,67.83
2022-09-25T22:37:13.717Z,67.89
2022-09-25T22:39:48.326Z,67.81
2022-09-25T22:42:21.316Z,67.66
2022-09-25T22:45:02.902Z,67.57
2022-09-25T22:47:49.757Z,67.80
2022-09-25T22:50:31.728Z,67.92
2022-09-25T22:53:08.741Z,67.87
2022-09-25T22:55:50.699Z,67.76
2022-09-25T22:58:36.113Z,67.86
2022-09-25T23:01:55.030Z,68.06
2022-09-25T23:04:53.581Z,68.02
2022-09-25T23:07:50.007Z,68.18
2022-09-25T23:11:06.277Z,68.12
2022-09-25T23:15:01.272Z,68.41
2022-09-25T23:18:05.906Z,68.58
2022-09-25T23:21:01.458Z,68.43
2022-09-25T23:27:11.033Z,68.46
2022-09-25T23:33:28.975Z,68.47
2022-09-25T23:36:25.921Z,68.59
2022-09-25T23:39:27.155Z,68.84
2022-09-25T23:42:23.806Z,69.07
2022-09-25T23:45:17.282Z,69.19
2022-09-25T23:48:41.237Z,69.29
2022-09-25T23:51:24.666Z,69.45
2022-09-25T23:54:14.215Z,69.35
2022-09-25T23:57:17.323Z,69.33
